VNKTVEPT

Guest
Details From VNKT - Kathmandu Tribhuvan Intl
To VEPT - PATNA
Flight Number -
Tags generated
Created
Modified
Stats Distance 129 nm / 239 km
Max Altitude 12,000 ft / 3,658 m
Waypoints 4
Social Downloads 0
Likes 0
Share VATSIM

Download

Looking for another format? Having issues loading an existing format? Contact us
Advertisement - Login to hide

Notes

Basic altitude profile: - Ascent Rate: 2500ft/min - Ascent Speed: 250kts - Cruise Altitude: 35000ft - Cruise Speed: 420kts - Descent Rate: 1500ft/min - Descent Speed: 250kts Options: - Use NATs: yes - Use PACOTS: yes - Use low airways: yes - Use high airways: yes

Route

VNKT DODUD G336 PPT VEPT

ID Type Via Altitude Latitude Longitude Leg Dist Tot Dist Heading (true) Name
O VNKT APT - 0 ft / 0 m 27.69658˚ 85.35910˚ - 0 nm - Kathmandu Tribhuvan Intl
DODUD FIX - 12,000 ft / 3,658 m 26.60033˚ 85.01436˚ 68 nm 68 nm 196° / 196° -
PPT VOR G336 (AWY-LO) 10,000 ft / 3,048 m 25.59042˚ 85.08992˚ 60 nm 129 nm 176° / 176° PATNA VOR-DME
O VEPT APT - 0 ft / 0 m 25.59132˚ 85.08799˚ 0 nm 129 nm 297° / 297° PATNA

Altitude Profile

Advertisement - Login to hide

VNKT

Details ICAO VNKT (KTM)
Name Kathmandu Tribhuvan Intl
Region Nepal
Timezone Asia/Kathmandu (UTC+5.8)
Stats Elevation 4,390 ft / 1,338 m (AMSL)
Location 27.696583° 85.359100°
Runways 1
Magnetic Variation 0.513° E

METAR

VNKT 202250Z 12003KT 5000 BR FEW015 SCT030 20/19 Q1012 NOSIG

Decode

TAF

TAF TAF VNKT 201700Z 2018/2118 VRB03KT 6000 FEW015 SCT030 BECMG 2100/2102 VRB02KT 3000 BR FEW010 SCT030 BECMG 2104/2105 13003KT 5000 BR FEW015 BECMG 2107/2108 24008KT 8000 FEW020 SCT100 PROB40 2108/2112 VRB10KT 5000 -TSRA FEW025CB BKN100 BECMG 2114/2115 VRB02KT 6000 FEW015 SCT030 BKN100

Decode

Departure Runways

ID Width Length Bearing (true) Bearing (mag) Surface Threshold Offset Overrun Length
02 148 ft / 45 m 10,017 ft / 3,053 m 21.50° 20.99° Asphalt 0 ft / 0 m 0 ft / 0 m
20 148 ft / 45 m 10,017 ft / 3,053 m 201.51° 201.00° Asphalt 400 ft / 122 m 0 ft / 0 m

VEPT

Details ICAO VEPT (PAT)
Name PATNA
Region India
Timezone Asia/Kolkata (UTC+5.5)
Stats Elevation 170 ft / 52 m (AMSL)
Location 25.591317° 85.087990°
Runways 1
Magnetic Variation 0.270° E

METAR

VEPT 202330Z 09003KT 3500 HZ FEW020 SCT100 28/25 Q1002 NOSIG

Decode

TAF

Not found

Destination Runways

ID Width Length Bearing (true) Bearing (mag) Surface Threshold Offset Overrun Length
07 148 ft / 45 m 6,411 ft / 1,954 m 68.24° 67.97° Asphalt 920 ft / 280 m 975 ft / 297 m
25 148 ft / 45 m 6,411 ft / 1,954 m 248.25° 247.98° Asphalt 440 ft / 134 m 310 ft / 94 m

Approach Navaids

Runway Type Ident Frequency Range Bearing (true) Bearing (mag) Slope Elevation
25 Localiser PAT 110.30 MHz 18 nm / 33 km 246.96° 246.69° - 170 ft / 52 m (AMSL)
25 Glidescope PAT 110.30 MHz 10 nm / 19 km 248.25° 247.98° 3.00° 170 ft / 52 m (AMSL)
25 DME PAT 110.30 MHz 18 nm / 33 km - - - 170 ft / 52 m (AMSL)

Popular Alternatives